createdAt,value
2023-01-04T00:00:14.311Z,100.00
2023-01-04T00:01:22.113Z,100.00
2023-01-04T00:02:25.081Z,100.00
2023-01-04T00:03:28.072Z,100.00
2023-01-04T00:04:31.098Z,100.00
2023-01-04T00:05:33.863Z,100.00
2023-01-04T00:06:38.590Z,100.00
2023-01-04T00:07:41.625Z,100.00
2023-01-04T00:08:46.205Z,100.00
2023-01-04T00:09:50.147Z,100.00
2023-01-04T00:10:52.966Z,100.00
2023-01-04T00:11:56.236Z,100.00
2023-01-04T00:12:59.571Z,100.00
2023-01-04T00:14:02.659Z,100.00
2023-01-04T00:15:05.972Z,100.00
2023-01-04T00:16:12.885Z,100.00
2023-01-04T00:17:16.379Z,100.00
2023-01-04T00:18:20.760Z,100.00
2023-01-04T00:19:23.736Z,100.00
2023-01-04T00:20:26.849Z,100.00
2023-01-04T00:21:31.147Z,100.00
2023-01-04T00:22:34.952Z,100.00
2023-01-04T00:23:39.124Z,100.00
2023-01-04T00:24:41.839Z,100.00
2023-01-04T00:25:44.772Z,100.00
2023-01-04T00:26:47.557Z,100.00
2023-01-04T00:27:51.682Z,100.00
2023-01-04T00:28:57.184Z,100.00
2023-01-04T00:29:59.929Z,100.00
2023-01-04T00:31:09.044Z,100.00
2023-01-04T00:32:11.855Z,100.00
2023-01-04T00:33:14.941Z,100.00
2023-01-04T00:34:18.894Z,100.00
2023-01-04T00:35:44.202Z,100.00
2023-01-04T00:36:45.574Z,100.00
2023-01-04T00:37:52.011Z,100.00
2023-01-04T00:39:08.883Z,100.00
2023-01-04T00:40:12.435Z,100.00
2023-01-04T00:41:49.305Z,100.00
2023-01-04T00:42:42.173Z,100.00
2023-01-04T00:43:44.916Z,100.00
2023-01-04T00:44:48.172Z,100.00
2023-01-04T00:45:50.974Z,100.00
2023-01-04T00:46:54.026Z,100.00
2023-01-04T00:47:57.110Z,100.00
2023-01-04T00:49:02.143Z,100.00
2023-01-04T00:50:05.876Z,100.00
2023-01-04T00:51:09.733Z,100.00
2023-01-04T00:52:12.457Z,100.00
2023-01-04T00:53:17.101Z,100.00
2023-01-04T00:54:21.325Z,100.00
2023-01-04T00:55:24.347Z,100.00
2023-01-04T00:56:31.189Z,100.00
2023-01-04T00:57:33.874Z,100.00
2023-01-04T00:58:40.393Z,100.00
2023-01-04T00:59:43.244Z,100.00
2023-01-04T01:00:46.210Z,100.00
2023-01-04T01:01:50.266Z,100.00
2023-01-04T01:02:53.379Z,100.00
2023-01-04T01:03:59.303Z,100.00
2023-01-04T01:05:02.214Z,100.00
2023-01-04T01:06:07.056Z,100.00
2023-01-04T01:07:09.806Z,100.00
2023-01-04T01:08:26.885Z,100.00
2023-01-04T01:09:29.909Z,100.00
2023-01-04T01:10:34.862Z,100.00
2023-01-04T01:11:39.777Z,100.00
2023-01-04T01:12:42.816Z,100.00
2023-01-04T01:13:46.413Z,100.00
2023-01-04T01:14:49.138Z,100.00
2023-01-04T01:15:51.830Z,100.00
2023-01-04T01:16:57.855Z,100.00
2023-01-04T01:18:01.060Z,100.00
2023-01-04T01:19:03.904Z,100.00
2023-01-04T01:20:07.434Z,100.00
2023-01-04T01:21:15.088Z,100.00
2023-01-04T01:22:18.139Z,100.00
2023-01-04T01:23:21.112Z,100.00
2023-01-04T01:24:23.924Z,100.00
2023-01-04T01:25:27.847Z,100.00
2023-01-04T01:26:31.030Z,100.00
2023-01-04T01:27:34.661Z,100.00
2023-01-04T01:28:38.323Z,100.00
2023-01-04T01:29:41.058Z,100.00
2023-01-04T01:30:44.603Z,100.00
2023-01-04T01:31:47.468Z,100.00
2023-01-04T01:32:50.527Z,100.00
2023-01-04T01:33:55.887Z,100.00
2023-01-04T01:34:58.689Z,100.00
2023-01-04T01:36:02.658Z,100.00
2023-01-04T01:37:06.165Z,100.00
2023-01-04T01:38:09.167Z,100.00
2023-01-04T01:39:11.994Z,100.00
2023-01-04T01:40:15.194Z,100.00
2023-01-04T01:41:23.701Z,100.00
2023-01-04T01:42:26.423Z,100.00
2023-01-04T01:43:54.382Z,100.00
2023-01-04T01:45:03.378Z,100.00
2023-01-04T01:46:06.651Z,100.00
2023-01-04T01:47:15.118Z,100.00
2023-01-04T01:48:28.106Z,100.00
2023-01-04T01:49:38.549Z,100.00
2023-01-04T01:50:53.869Z,100.00
2023-01-04T01:52:00.314Z,100.00
2023-01-04T01:53:06.393Z,100.00
2023-01-04T01:54:21.876Z,100.00
2023-01-04T01:55:25.279Z,100.00
2023-01-04T01:56:36.461Z,100.00
2023-01-04T01:57:40.045Z,100.00
2023-01-04T01:58:50.099Z,100.00
2023-01-04T01:59:56.171Z,100.00
2023-01-04T02:00:59.747Z,100.00
2023-01-04T02:02:03.154Z,100.00
2023-01-04T02:03:23.315Z,100.00
2023-01-04T02:04:27.178Z,100.00
2023-01-04T02:05:31.031Z,100.00
2023-01-04T02:06:39.952Z,100.00
2023-01-04T02:07:44.040Z,100.00
2023-01-04T02:08:49.345Z,100.00
2023-01-04T02:09:54.057Z,100.00
2023-01-04T02:10:57.386Z,100.00
2023-01-04T02:12:01.133Z,100.00
2023-01-04T02:13:09.815Z,100.00
2023-01-04T02:14:30.328Z,100.00
2023-01-04T02:15:48.925Z,100.00
2023-01-04T02:17:29.871Z,100.00
2023-01-04T02:18:42.910Z,100.00
2023-01-04T02:20:21.893Z,100.00
2023-01-04T02:22:00.370Z,100.00
2023-01-04T02:23:28.600Z,100.00
2023-01-04T02:25:02.995Z,100.00
2023-01-04T02:26:24.903Z,100.00
2023-01-04T02:27:54.614Z,100.00
2023-01-04T02:29:20.177Z,100.00
2023-01-04T02:30:42.753Z,100.00
2023-01-04T02:31:53.144Z,100.00
2023-01-04T02:33:05.300Z,100.00
2023-01-04T02:34:36.223Z,100.00
2023-01-04T02:36:03.557Z,100.00
2023-01-04T02:37:21.382Z,100.00
2023-01-04T02:38:38.915Z,100.00
2023-01-04T02:40:14.228Z,100.00
2023-01-04T02:41:33.119Z,100.00
2023-01-04T02:43:22.399Z,100.00
2023-01-04T02:44:57.551Z,100.00
2023-01-04T02:46:08.096Z,100.00
2023-01-04T02:47:16.115Z,100.00
2023-01-04T02:48:39.017Z,100.00
2023-01-04T02:50:05.217Z,100.00
2023-01-04T02:51:30.926Z,100.00
2023-01-04T02:52:34.097Z,100.00
2023-01-04T02:53:40.256Z,100.00
2023-01-04T02:54:44.825Z,100.00
2023-01-04T02:55:56.761Z,100.00
2023-01-04T02:57:18.299Z,100.00
2023-01-04T02:58:53.669Z,100.00
2023-01-04T03:00:21.201Z,100.00
2023-01-04T03:01:48.647Z,100.00
2023-01-04T03:03:36.599Z,100.00
2023-01-04T03:05:23.370Z,100.00
2023-01-04T03:06:40.791Z,100.00
2023-01-04T03:07:59.399Z,100.00
2023-01-04T03:09:21.828Z,100.00
2023-01-04T03:10:47.571Z,100.00
2023-01-04T03:12:32.534Z,100.00
2023-01-04T03:13:46.141Z,100.00
2023-01-04T03:14:52.521Z,100.00
2023-01-04T03:16:09.472Z,100.00
2023-01-04T03:17:16.458Z,100.00
2023-01-04T03:18:29.568Z,100.00
2023-01-04T03:19:54.833Z,100.00
2023-01-04T03:21:01.452Z,100.00
2023-01-04T03:22:06.117Z,100.00
2023-01-04T03:23:32.273Z,100.00
2023-01-04T03:24:53.707Z,100.00
2023-01-04T03:26:20.948Z,100.00
2023-01-04T03:27:43.003Z,100.00
2023-01-04T03:29:07.821Z,100.00
2023-01-04T03:30:33.231Z,100.00
2023-01-04T03:32:08.354Z,100.00
2023-01-04T03:33:29.793Z,100.00
2023-01-04T03:34:52.801Z,100.00
2023-01-04T03:36:13.841Z,100.00
2023-01-04T03:37:23.567Z,100.00
2023-01-04T03:38:58.582Z,100.00
2023-01-04T03:40:43.175Z,100.00
2023-01-04T03:42:11.137Z,100.00
2023-01-04T03:43:47.664Z,100.00
2023-01-04T03:45:22.863Z,100.00
2023-01-04T03:46:53.319Z,100.00
2023-01-04T03:48:14.879Z,100.00
2023-01-04T03:49:39.497Z,100.00
2023-01-04T03:50:51.054Z,100.00
2023-01-04T03:51:58.256Z,100.00
2023-01-04T03:53:02.667Z,100.00
2023-01-04T03:54:20.003Z,100.00
2023-01-04T03:55:24.574Z,100.00
2023-01-04T03:58:45.634Z,100.00
2023-01-04T03:59:53.747Z,100.00
2023-01-04T04:03:15.640Z,100.00
2023-01-04T04:08:29.314Z,100.00
2023-01-04T04:09:32.782Z,100.00
2023-01-04T04:12:48.976Z,100.00
2023-01-04T04:13:51.700Z,100.00
2023-01-04T04:17:17.554Z,100.00
2023-01-04T04:18:22.994Z,100.00
2023-01-04T04:21:48.558Z,100.00
2023-01-04T04:22:51.667Z,100.00
2023-01-04T04:26:20.442Z,100.00
2023-01-04T04:27:23.263Z,100.00
2023-01-04T04:30:50.552Z,100.00
2023-01-04T04:31:53.547Z,100.00
2023-01-04T04:35:22.454Z,100.00
2023-01-04T04:36:25.546Z,100.00
2023-01-04T04:39:54.441Z,100.00
2023-01-04T04:45:07.805Z,100.00
2023-01-04T04:46:10.871Z,100.00
2023-01-04T04:49:36.600Z,100.00
2023-01-04T04:50:39.392Z,100.00
2023-01-04T04:51:43.405Z,100.00
2023-01-04T04:52:50.992Z,100.00
2023-01-04T04:53:57.598Z,100.00
2023-01-04T04:55:00.566Z,100.00
2023-01-04T04:56:03.377Z,100.00
2023-01-04T04:57:06.601Z,100.00
2023-01-04T04:58:09.968Z,100.00
2023-01-04T04:59:12.971Z,100.00
2023-01-04T05:00:16.063Z,100.00
2023-01-04T05:01:19.513Z,100.00
2023-01-04T05:02:22.881Z,100.00
2023-01-04T05:03:25.738Z,100.00
2023-01-04T05:04:28.421Z,100.00
2023-01-04T05:05:31.565Z,100.00
2023-01-04T05:06:34.490Z,100.00
2023-01-04T05:07:37.487Z,100.00
2023-01-04T05:08:42.134Z,100.00
2023-01-04T05:09:44.988Z,100.00
2023-01-04T05:10:47.693Z,100.00
2023-01-04T05:12:09.182Z,100.00
2023-01-04T05:13:13.296Z,100.00
2023-01-04T05:14:16.322Z,100.00
2023-01-04T05:15:19.915Z,100.00
2023-01-04T05:16:22.865Z,100.00
2023-01-04T05:17:25.631Z,100.00
2023-01-04T05:18:30.756Z,100.00
2023-01-04T05:19:33.895Z,100.00
2023-01-04T05:20:36.929Z,100.00
2023-01-04T05:21:40.933Z,100.00
2023-01-04T05:22:43.860Z,100.00
2023-01-04T05:23:46.936Z,100.00
2023-01-04T05:24:49.644Z,100.00
2023-01-04T05:25:56.177Z,100.00
2023-01-04T05:26:58.957Z,100.00
2023-01-04T05:28:02.238Z,100.00
2023-01-04T05:29:27.720Z,100.00
2023-01-04T05:30:51.633Z,100.00
2023-01-04T05:32:00.045Z,100.00
2023-01-04T05:33:04.684Z,100.00
2023-01-04T05:34:10.332Z,100.00
2023-01-04T05:35:13.067Z,100.00
2023-01-04T05:36:16.107Z,100.00
2023-01-04T05:37:18.887Z,100.00
2023-01-04T05:38:25.667Z,100.00
2023-01-04T05:39:30.935Z,100.00
2023-01-04T05:40:33.740Z,100.00
2023-01-04T05:41:55.369Z,100.00
2023-01-04T05:42:58.125Z,100.00
2023-01-04T05:44:01.168Z,100.00
2023-01-04T05:45:04.675Z,100.00
2023-01-04T05:46:07.361Z,100.00
2023-01-04T05:47:14.891Z,100.00
2023-01-04T05:48:19.720Z,100.00
2023-01-04T05:49:22.996Z,100.00
2023-01-04T05:50:26.350Z,100.00
2023-01-04T05:51:29.073Z,100.00
2023-01-04T05:52:32.030Z,100.00
2023-01-04T05:53:34.818Z,100.00
2023-01-04T05:54:37.923Z,100.00
2023-01-04T05:55:41.102Z,100.00
2023-01-04T05:56:43.896Z,100.00
2023-01-04T05:57:47.331Z,100.00
2023-01-04T05:58:53.738Z,100.00
2023-01-04T05:59:56.475Z,100.00
2023-01-04T06:00:59.797Z,100.00
2023-01-04T06:02:04.103Z,100.00
2023-01-04T06:03:06.986Z,100.00
2023-01-04T06:04:09.970Z,100.00
2023-01-04T06:05:13.863Z,100.00
2023-01-04T06:06:16.827Z,100.00
2023-01-04T06:07:20.712Z,100.00
2023-01-04T06:08:26.678Z,100.00
2023-01-04T06:09:29.848Z,100.00
2023-01-04T06:10:33.979Z,100.00
2023-01-04T06:11:37.438Z,100.00
2023-01-04T06:12:40.963Z,100.00
2023-01-04T06:13:43.733Z,100.00
2023-01-04T06:14:46.851Z,100.00
2023-01-04T06:15:49.565Z,100.00
2023-01-04T06:16:52.541Z,100.00
2023-01-04T06:17:56.350Z,100.00
2023-01-04T06:19:00.017Z,100.00
2023-01-04T06:20:03.801Z,100.00
2023-01-04T06:21:08.172Z,100.00
2023-01-04T06:22:11.390Z,100.00
2023-01-04T06:23:14.616Z,100.00
2023-01-04T06:24:17.419Z,100.00
2023-01-04T06:25:20.172Z,100.00
2023-01-04T06:26:23.136Z,100.00
2023-01-04T06:27:28.259Z,100.00
2023-01-04T06:28:38.608Z,100.00
2023-01-04T06:29:43.536Z,100.00
2023-01-04T06:30:46.436Z,100.00
2023-01-04T06:31:49.164Z,100.00
2023-01-04T06:32:52.241Z,100.00
2023-01-04T06:33:55.839Z,100.00
2023-01-04T06:34:58.582Z,100.00
2023-01-04T06:36:03.132Z,100.00
2023-01-04T06:37:06.650Z,100.00
2023-01-04T06:38:09.435Z,100.00
2023-01-04T06:39:13.215Z,100.00
2023-01-04T06:40:16.318Z,100.00
2023-01-04T06:41:23.247Z,100.00
2023-01-04T06:42:44.696Z,100.00
2023-01-04T06:43:47.481Z,100.00
2023-01-04T06:44:50.716Z,100.00
2023-01-04T06:45:53.515Z,100.00
2023-01-04T06:47:04.254Z,100.00
2023-01-04T06:48:09.248Z,100.00
2023-01-04T06:49:14.467Z,100.00
2023-01-04T06:50:17.895Z,100.00
2023-01-04T06:51:22.242Z,100.00
2023-01-04T06:52:25.382Z,100.00
2023-01-04T06:53:28.211Z,100.00
2023-01-04T06:54:32.792Z,100.00
2023-01-04T06:55:35.880Z,100.00
2023-01-04T06:56:39.272Z,100.00
2023-01-04T06:57:42.416Z,100.00
2023-01-04T06:58:46.948Z,100.00
2023-01-04T06:59:49.995Z,100.00
2023-01-04T07:00:55.002Z,100.00
2023-01-04T07:01:57.771Z,100.00
2023-01-04T07:03:13.960Z,100.00
2023-01-04T07:04:18.187Z,100.00
2023-01-04T07:05:21.365Z,100.00
2023-01-04T07:06:24.588Z,100.00
2023-01-04T07:07:27.819Z,100.00
2023-01-04T07:08:32.255Z,100.00
2023-01-04T07:09:36.246Z,100.00
2023-01-04T07:10:39.621Z,100.00
2023-01-04T07:11:42.877Z,100.00
2023-01-04T07:12:45.957Z,100.00
2023-01-04T07:13:48.874Z,100.00
2023-01-04T07:14:51.797Z,100.00
2023-01-04T07:15:54.914Z,100.00
2023-01-04T07:16:58.108Z,100.00
2023-01-04T07:18:01.049Z,100.00
2023-01-04T07:19:04.447Z,100.00
2023-01-04T07:20:07.463Z,100.00
2023-01-04T07:21:12.587Z,100.00
2023-01-04T07:22:16.671Z,100.00
2023-01-04T07:23:19.458Z,100.00
2023-01-04T07:24:27.949Z,100.00
2023-01-04T07:25:32.894Z,100.00
2023-01-04T07:26:35.953Z,100.00
2023-01-04T07:27:38.977Z,100.00
2023-01-04T07:29:06.654Z,100.00
2023-01-04T07:30:10.362Z,100.00
2023-01-04T07:31:18.631Z,100.00
2023-01-04T07:32:21.609Z,100.00
2023-01-04T07:33:24.689Z,100.00
2023-01-04T07:34:28.625Z,100.00
2023-01-04T07:35:31.426Z,100.00
2023-01-04T07:36:34.153Z,100.00
2023-01-04T07:37:37.342Z,100.00
2023-01-04T07:38:43.666Z,100.00
2023-01-04T07:39:48.661Z,100.00
2023-01-04T07:40:55.847Z,100.00
2023-01-04T07:41:59.764Z,100.00
2023-01-04T07:43:05.111Z,100.00
2023-01-04T07:44:09.237Z,100.00
2023-01-04T07:45:12.446Z,100.00
2023-01-04T07:46:15.254Z,100.00
2023-01-04T07:47:18.051Z,100.00
2023-01-04T07:48:29.641Z,100.00
2023-01-04T07:49:33.047Z,100.00
2023-01-04T07:50:37.038Z,100.00
2023-01-04T07:51:40.046Z,100.00
2023-01-04T07:52:42.926Z,100.00
2023-01-04T07:53:45.927Z,100.00
2023-01-04T07:54:48.921Z,100.00
2023-01-04T07:55:56.699Z,100.00
2023-01-04T07:56:59.544Z,100.00
2023-01-04T07:58:02.530Z,100.00
2023-01-04T07:59:11.314Z,100.00
2023-01-04T08:00:14.969Z,100.00
2023-01-04T08:01:20.417Z,100.00
2023-01-04T08:02:23.663Z,100.00
2023-01-04T08:03:27.045Z,100.00
2023-01-04T08:04:34.909Z,100.00
2023-01-04T08:05:38.195Z,100.00
2023-01-04T08:06:43.753Z,100.00
2023-01-04T08:07:46.821Z,100.00
2023-01-04T08:08:50.658Z,100.00
2023-01-04T08:09:53.633Z,100.00
2023-01-04T08:10:56.418Z,100.00
2023-01-04T08:11:59.588Z,100.00
2023-01-04T08:13:02.561Z,100.00
2023-01-04T08:14:05.301Z,100.00
2023-01-04T08:15:08.372Z,100.00
2023-01-04T08:16:29.131Z,100.00
2023-01-04T08:17:32.223Z,100.00
2023-01-04T08:18:35.599Z,100.00
2023-01-04T08:19:38.516Z,100.00
2023-01-04T08:20:41.523Z,100.00
2023-01-04T08:21:45.074Z,100.00
2023-01-04T08:22:48.373Z,100.00
2023-01-04T08:23:52.254Z,100.00
2023-01-04T08:24:55.255Z,100.00
2023-01-04T08:26:05.010Z,100.00
2023-01-04T08:27:08.438Z,100.00
2023-01-04T08:28:12.495Z,100.00
2023-01-04T08:29:15.486Z,100.00
2023-01-04T08:30:18.619Z,100.00
2023-01-04T08:31:23.977Z,100.00
2023-01-04T08:32:27.729Z,100.00
2023-01-04T08:33:30.763Z,100.00
2023-01-04T08:34:33.833Z,100.00
2023-01-04T08:35:36.518Z,100.00
2023-01-04T08:36:50.776Z,100.00
2023-01-04T08:37:53.533Z,100.00
2023-01-04T08:39:01.574Z,100.00
2023-01-04T08:40:05.756Z,100.00
2023-01-04T08:41:39.284Z,100.00
2023-01-04T08:42:35.468Z,100.00
2023-01-04T08:43:38.881Z,100.00
2023-01-04T08:44:42.134Z,100.00
2023-01-04T08:45:44.829Z,100.00
2023-01-04T08:46:49.160Z,100.00
2023-01-04T08:47:52.031Z,100.00
2023-01-04T08:48:55.947Z,100.00
2023-01-04T08:50:04.796Z,100.00
2023-01-04T08:51:25.675Z,100.00
2023-01-04T08:52:28.414Z,100.00
2023-01-04T08:53:32.281Z,100.00
2023-01-04T08:54:34.959Z,100.00
2023-01-04T08:55:38.361Z,100.00
2023-01-04T08:56:41.477Z,100.00
2023-01-04T08:57:44.290Z,100.00
2023-01-04T08:58:48.324Z,100.00
2023-01-04T08:59:51.355Z,100.00
2023-01-04T09:00:59.535Z,100.00
2023-01-04T09:02:05.568Z,100.00
2023-01-04T09:03:09.125Z,100.00
2023-01-04T09:04:11.958Z,100.00
2023-01-04T09:05:22.384Z,100.00
2023-01-04T09:06:27.479Z,100.00
2023-01-04T09:07:31.493Z,100.00
2023-01-04T09:08:35.835Z,100.00
2023-01-04T09:09:39.351Z,100.00
2023-01-04T09:10:42.122Z,100.00
2023-01-04T09:11:45.234Z,100.00
2023-01-04T09:12:49.206Z,100.00
2023-01-04T09:14:07.156Z,100.00
2023-01-04T09:15:11.663Z,100.00
2023-01-04T09:16:17.044Z,100.00
2023-01-04T09:17:20.411Z,100.00
2023-01-04T09:18:32.699Z,100.00
2023-01-04T09:19:45.862Z,100.00
2023-01-04T09:20:48.906Z,100.00
2023-01-04T09:21:52.149Z,100.00
2023-01-04T09:22:57.781Z,100.00
2023-01-04T09:24:00.562Z,100.00
2023-01-04T09:25:04.024Z,100.00
2023-01-04T09:26:09.705Z,100.00
2023-01-04T09:27:12.729Z,100.00
2023-01-04T09:28:20.919Z,100.00
2023-01-04T09:29:27.525Z,100.00
2023-01-04T09:30:31.831Z,100.00
2023-01-04T09:31:34.769Z,100.00
2023-01-04T09:32:38.039Z,100.00
2023-01-04T09:34:12.726Z,100.00
2023-01-04T09:35:04.649Z,100.00
2023-01-04T09:36:09.134Z,100.00
2023-01-04T09:37:11.929Z,100.00
2023-01-04T09:38:14.979Z,100.00
2023-01-04T09:39:23.507Z,100.00
2023-01-04T09:40:41.281Z,100.00
2023-01-04T09:41:57.129Z,100.00
2023-01-04T09:43:19.943Z,100.00
2023-01-04T09:46:08.310Z,100.00
2023-01-04T09:47:17.613Z,100.00
2023-01-04T09:48:27.230Z,100.00
2023-01-04T09:49:42.937Z,100.00
2023-01-04T09:50:54.670Z,100.00
2023-01-04T09:52:05.442Z,100.00
2023-01-04T09:53:29.511Z,100.00
2023-01-04T09:54:47.924Z,100.00
2023-01-04T09:55:53.657Z,100.00
2023-01-04T09:56:59.372Z,100.00
2023-01-04T09:58:50.082Z,100.00
2023-01-04T10:00:01.390Z,100.00
2023-01-04T10:01:15.742Z,100.00
2023-01-04T10:02:26.955Z,100.00
2023-01-04T10:03:36.394Z,100.00
2023-01-04T10:04:47.616Z,100.00
2023-01-04T10:05:55.294Z,100.00
2023-01-04T10:07:04.728Z,100.00
2023-01-04T10:08:17.547Z,100.00
2023-01-04T10:09:23.309Z,100.00
2023-01-04T10:11:16.021Z,100.00
2023-01-04T10:12:28.311Z,100.00
2023-01-04T10:13:34.172Z,100.00
2023-01-04T10:14:48.701Z,100.00
2023-01-04T10:16:04.311Z,100.00
2023-01-04T10:17:57.412Z,100.00
2023-01-04T10:19:59.647Z,100.00
2023-01-04T10:22:16.233Z,100.00
2023-01-04T10:23:32.539Z,100.00
2023-01-04T10:24:44.852Z,100.00
2023-01-04T10:26:11.321Z,100.00
2023-01-04T10:27:46.427Z,100.00
2023-01-04T10:29:00.039Z,100.00
2023-01-04T10:30:41.797Z,100.00
2023-01-04T10:31:53.694Z,100.00
2023-01-04T10:33:11.099Z,100.00
2023-01-04T10:34:28.625Z,100.00
2023-01-04T10:35:33.269Z,100.00
2023-01-04T10:36:36.741Z,100.00
2023-01-04T10:37:40.030Z,100.00
2023-01-04T10:38:59.056Z,100.00
2023-01-04T10:40:02.405Z,100.00
2023-01-04T10:41:12.719Z,100.00
2023-01-04T10:42:32.089Z,100.00
2023-01-04T10:44:11.815Z,100.00
2023-01-04T10:45:19.891Z,100.00
2023-01-04T10:46:50.173Z,99.04
2023-01-04T10:47:59.010Z,100.00
2023-01-04T10:49:42.345Z,99.56
2023-01-04T10:50:56.548Z,98.90
2023-01-04T10:52:12.334Z,97.37
2023-01-04T10:53:27.355Z,95.43
2023-01-04T10:54:44.271Z,94.37
2023-01-04T10:56:24.011Z,92.62
2023-01-04T10:58:09.214Z,90.76
2023-01-04T11:36:03.690Z,75.11
2023-01-04T11:37:35.685Z,76.33
2023-01-04T11:38:56.261Z,76.34
2023-01-04T11:40:17.920Z,74.57
2023-01-04T11:41:20.892Z,75.43
2023-01-04T11:42:23.862Z,74.56
2023-01-04T11:43:32.072Z,74.77
2023-01-04T11:44:35.992Z,74.74
2023-01-04T11:45:38.868Z,73.85
2023-01-04T11:46:42.320Z,76.70
2023-01-04T11:47:58.497Z,75.99
2023-01-04T11:49:01.421Z,74.90
2023-01-04T11:50:04.587Z,74.35
2023-01-04T11:51:29.070Z,75.79
2023-01-04T11:52:36.495Z,78.27
2023-01-04T11:53:39.653Z,78.54
2023-01-04T11:54:42.456Z,78.42
2023-01-04T11:55:45.171Z,79.45
2023-01-04T11:57:18.914Z,78.11
2023-01-04T11:58:22.048Z,77.04
2023-01-04T11:59:25.838Z,75.00
2023-01-04T12:00:28.772Z,75.94
2023-01-04T12:01:36.737Z,75.97
2023-01-04T12:04:03.044Z,74.79
2023-01-04T12:05:29.656Z,72.25
2023-01-04T12:07:11.943Z,75.58
2023-01-04T12:08:35.784Z,75.01
2023-01-04T12:09:38.734Z,77.61
2023-01-04T12:10:42.927Z,77.76
2023-01-04T12:11:51.043Z,78.57
2023-01-04T12:12:55.365Z,77.03
2023-01-04T12:14:00.184Z,76.42
2023-01-04T12:15:16.686Z,75.66
2023-01-04T12:16:43.301Z,74.95
2023-01-04T12:17:50.213Z,74.71
2023-01-04T12:18:53.576Z,73.81
2023-01-04T12:19:58.085Z,74.88
2023-01-04T12:21:02.892Z,74.72
2023-01-04T12:22:32.024Z,75.48
2023-01-04T12:23:35.530Z,74.46
2023-01-04T12:24:39.272Z,73.98
2023-01-04T12:25:46.158Z,74.16
2023-01-04T12:26:50.389Z,70.34
2023-01-04T12:27:55.564Z,71.63
2023-01-04T12:29:24.506Z,71.56
2023-01-04T12:30:39.046Z,71.20
2023-01-04T12:31:41.737Z,70.87
2023-01-04T12:32:46.677Z,71.58
2023-01-04T12:33:50.669Z,70.07
2023-01-04T12:34:55.030Z,70.90
2023-01-04T12:36:14.851Z,70.45
2023-01-04T12:37:36.511Z,70.28
2023-01-04T12:38:57.714Z,70.02
2023-01-04T12:40:01.085Z,70.40
2023-01-04T12:41:03.898Z,70.00
2023-01-04T12:42:13.255Z,69.66
2023-01-04T12:43:16.148Z,69.46
2023-01-04T12:44:37.778Z,70.28
2023-01-04T12:45:41.507Z,69.40
2023-01-04T12:47:19.776Z,66.87
2023-01-04T12:48:47.500Z,65.71
2023-01-04T12:49:57.449Z,66.64
2023-01-04T12:51:46.865Z,66.18
2023-01-04T12:54:32.304Z,68.58
2023-01-04T12:55:52.669Z,68.67
2023-01-04T12:57:22.871Z,70.35
2023-01-04T12:58:49.732Z,70.65
2023-01-04T13:00:12.696Z,71.85
2023-01-04T13:01:27.843Z,70.63
2023-01-04T13:02:36.375Z,69.13
2023-01-04T13:03:48.576Z,69.27
2023-01-04T13:05:25.678Z,70.95
2023-01-04T13:06:22.083Z,70.74
2023-01-04T13:07:41.149Z,70.79
2023-01-04T13:08:51.800Z,72.38
2023-01-04T13:09:59.185Z,72.53
2023-01-04T13:11:05.257Z,73.33
2023-01-04T13:12:12.737Z,74.46
2023-01-04T13:13:15.400Z,74.30
2023-01-04T13:14:34.131Z,74.26
2023-01-04T13:15:52.358Z,74.76
2023-01-04T13:17:15.853Z,73.87
2023-01-04T13:19:04.158Z,75.03
2023-01-04T13:20:15.496Z,75.61
2023-01-04T13:21:27.047Z,76.38
2023-01-04T13:22:31.638Z,76.54
2023-01-04T13:23:34.721Z,76.29
2023-01-04T13:24:39.098Z,77.91
2023-01-04T13:25:42.517Z,78.11
2023-01-04T13:26:48.731Z,77.71
2023-01-04T13:28:00.029Z,78.83
2023-01-04T13:29:18.730Z,80.61
2023-01-04T13:30:35.472Z,80.32
2023-01-04T13:31:42.691Z,81.65
2023-01-04T13:33:24.430Z,81.92
2023-01-04T13:34:32.470Z,82.25
2023-01-04T13:35:35.687Z,82.39
2023-01-04T13:36:39.076Z,82.41
2023-01-04T13:37:47.917Z,83.47
2023-01-04T13:38:51.283Z,83.40
2023-01-04T13:40:12.867Z,84.27
2023-01-04T13:41:22.169Z,84.61
2023-01-04T13:42:41.438Z,84.70
2023-01-04T13:44:02.725Z,85.14
2023-01-04T13:45:20.030Z,85.87
2023-01-04T13:46:26.803Z,86.20
2023-01-04T13:47:38.425Z,86.46
2023-01-04T13:48:44.374Z,86.55
2023-01-04T13:49:47.946Z,86.64
2023-01-04T13:51:16.187Z,86.31
2023-01-04T13:54:02.702Z,87.31
2023-01-04T13:55:32.443Z,86.73
2023-01-04T13:56:35.531Z,86.79
2023-01-04T13:57:38.608Z,86.89
2023-01-04T13:58:43.677Z,87.33
2023-01-04T13:59:48.733Z,87.09
2023-01-04T14:01:22.340Z,87.76
2023-01-04T14:02:25.653Z,87.49
2023-01-04T14:03:45.013Z,87.42
2023-01-04T14:04:50.674Z,88.20
2023-01-04T14:05:59.980Z,88.30
2023-01-04T14:07:05.705Z,88.75
2023-01-04T14:08:12.534Z,89.46
2023-01-04T14:09:20.467Z,89.59
2023-01-04T14:10:23.612Z,90.55
2023-01-04T14:12:05.787Z,91.04
2023-01-04T14:13:16.204Z,90.86
2023-01-04T14:14:43.258Z,91.59
2023-01-04T14:15:46.376Z,92.71
2023-01-04T14:16:50.991Z,93.53
2023-01-04T14:17:57.272Z,94.62
2023-01-04T14:19:27.242Z,94.87
2023-01-04T14:20:29.938Z,96.11
2023-01-04T14:21:36.450Z,96.45
2023-01-04T14:22:44.890Z,97.45
2023-01-04T14:23:47.950Z,97.97
2023-01-04T14:25:09.793Z,98.74
2023-01-04T14:26:32.936Z,99.35
2023-01-04T14:27:41.009Z,100.00
2023-01-04T14:28:50.009Z,100.00
2023-01-04T14:29:53.589Z,100.00
2023-01-04T14:31:11.707Z,100.00
2023-01-04T14:32:14.482Z,100.00
2023-01-04T14:33:20.325Z,100.00
2023-01-04T14:34:23.079Z,100.00
2023-01-04T14:35:27.743Z,100.00
2023-01-04T14:36:32.678Z,100.00
2023-01-04T14:37:35.765Z,100.00
2023-01-04T14:39:12.782Z,100.00
2023-01-04T14:40:24.386Z,100.00
2023-01-04T14:41:39.947Z,100.00
2023-01-04T14:42:42.960Z,100.00
2023-01-04T14:43:48.612Z,100.00
2023-01-04T14:44:51.710Z,100.00
2023-01-04T14:45:54.870Z,100.00
2023-01-04T14:47:00.885Z,100.00
2023-01-04T14:48:04.391Z,100.00
2023-01-04T14:49:07.701Z,100.00
2023-01-04T14:50:13.573Z,100.00
2023-01-04T14:51:19.819Z,100.00
2023-01-04T14:52:23.876Z,100.00
2023-01-04T14:53:27.628Z,100.00
2023-01-04T14:54:31.933Z,100.00
2023-01-04T14:55:34.652Z,100.00
2023-01-04T14:56:37.727Z,100.00
2023-01-04T14:57:43.410Z,100.00
2023-01-04T14:58:46.705Z,100.00
2023-01-04T14:59:49.704Z,100.00
2023-01-04T15:00:52.818Z,100.00
2023-01-04T15:01:57.206Z,100.00
2023-01-04T15:03:00.344Z,100.00
2023-01-04T15:04:05.043Z,100.00
2023-01-04T15:05:08.595Z,100.00
2023-01-04T15:06:12.342Z,100.00
2023-01-04T15:07:35.494Z,100.00
2023-01-04T15:08:38.637Z,100.00
2023-01-04T15:09:41.786Z,100.00
2023-01-04T15:10:46.301Z,100.00
2023-01-04T15:11:49.784Z,100.00
2023-01-04T15:12:53.122Z,100.00
2023-01-04T15:13:56.189Z,100.00
2023-01-04T15:14:59.218Z,100.00
2023-01-04T15:16:01.988Z,100.00
2023-01-04T15:17:04.865Z,100.00
2023-01-04T15:18:08.461Z,100.00
2023-01-04T15:19:12.245Z,100.00
2023-01-04T15:20:15.287Z,100.00
2023-01-04T15:21:18.046Z,100.00
2023-01-04T15:22:21.193Z,100.00
2023-01-04T15:23:23.893Z,100.00
2023-01-04T15:24:26.995Z,100.00
2023-01-04T15:25:29.959Z,100.00
2023-01-04T15:26:32.748Z,100.00
2023-01-04T15:27:41.701Z,100.00
2023-01-04T15:28:45.525Z,100.00
2023-01-04T15:29:48.815Z,100.00
2023-01-04T15:30:51.622Z,100.00
2023-01-04T15:31:54.771Z,100.00
2023-01-04T15:32:57.654Z,100.00
2023-01-04T15:34:00.729Z,100.00
2023-01-04T15:35:04.032Z,100.00
2023-01-04T15:36:23.253Z,100.00
2023-01-04T15:37:27.149Z,100.00
2023-01-04T15:38:29.888Z,100.00
2023-01-04T15:39:32.786Z,100.00
2023-01-04T15:40:35.992Z,100.00
2023-01-04T15:41:57.743Z,100.00
2023-01-04T15:43:00.557Z,100.00
2023-01-04T15:44:09.715Z,100.00
2023-01-04T15:45:12.881Z,100.00